createdAt,value
2023-03-29T00:02:02.506Z,47.40
2023-03-29T00:04:34.252Z,47.90
2023-03-29T00:07:04.217Z,47.20
2023-03-29T00:09:33.086Z,47.30
2023-03-29T00:12:01.288Z,47.20
2023-03-29T00:14:30.432Z,47.80
2023-03-29T00:16:58.764Z,47.20
2023-03-29T00:19:25.837Z,47.20
2023-03-29T00:21:52.761Z,47.20
2023-03-29T00:24:21.008Z,47.30
2023-03-29T00:26:48.268Z,48.30
2023-03-29T00:29:15.475Z,48.10
2023-03-29T00:31:44.291Z,47.70
2023-03-29T00:34:11.610Z,47.40
2023-03-29T00:36:40.375Z,47.60
2023-03-29T00:39:07.321Z,47.80
2023-03-29T00:41:36.318Z,47.40
2023-03-29T00:44:04.528Z,47.80
2023-03-29T00:46:32.140Z,48.60
2023-03-29T00:49:05.206Z,47.50
2023-03-29T00:51:36.415Z,47.40
2023-03-29T00:54:06.305Z,47.50
2023-03-29T00:56:38.677Z,47.40
2023-03-29T00:59:07.997Z,48.20
2023-03-29T01:01:55.916Z,47.90
2023-03-29T01:04:37.859Z,47.40
2023-03-29T01:07:17.798Z,47.50
2023-03-29T01:09:48.107Z,47.90
2023-03-29T01:12:23.347Z,47.50
2023-03-29T01:15:25.079Z,47.50
2023-03-29T01:17:53.831Z,47.50
2023-03-29T01:20:30.666Z,47.60
2023-03-29T01:23:26.875Z,47.50
2023-03-29T01:26:19.574Z,47.60
2023-03-29T01:29:11.405Z,47.70
2023-03-29T01:31:44.027Z,47.90
2023-03-29T01:34:25.677Z,48.00
2023-03-29T01:37:07.406Z,47.80
2023-03-29T01:39:34.986Z,47.80
2023-03-29T01:42:25.505Z,47.50
2023-03-29T01:45:07.329Z,47.90
2023-03-29T01:47:47.558Z,48.10
2023-03-29T01:50:14.432Z,47.90
2023-03-29T01:53:05.432Z,48.60
2023-03-29T01:55:41.376Z,48.00
2023-03-29T01:58:10.373Z,48.40
2023-03-29T02:00:39.687Z,48.40
2023-03-29T02:03:09.216Z,48.00
2023-03-29T02:05:39.780Z,48.00
2023-03-29T02:08:09.069Z,48.50
2023-03-29T02:10:36.757Z,48.10
2023-03-29T02:13:05.389Z,48.10
2023-03-29T02:15:33.501Z,48.50
2023-03-29T02:18:03.956Z,48.90
2023-03-29T02:20:38.767Z,48.80
2023-03-29T02:23:21.206Z,48.10
2023-03-29T02:25:50.829Z,48.20
2023-03-29T02:28:17.881Z,48.30
2023-03-29T02:30:55.339Z,48.30
2023-03-29T02:33:37.837Z,48.80
2023-03-29T02:36:44.604Z,48.20
2023-03-29T02:39:15.534Z,48.20
2023-03-29T02:41:45.767Z,48.40
2023-03-29T02:44:19.476Z,48.20
2023-03-29T02:46:49.794Z,48.10
2023-03-29T02:49:18.405Z,48.20
2023-03-29T02:51:48.751Z,48.20
2023-03-29T02:54:19.366Z,48.60
2023-03-29T02:56:49.212Z,48.30
2023-03-29T02:59:19.326Z,48.90
2023-03-29T03:01:46.465Z,49.30
2023-03-29T03:04:13.762Z,48.30
2023-03-29T03:06:41.369Z,48.30
2023-03-29T03:09:10.542Z,48.30
2023-03-29T03:11:40.292Z,48.90
2023-03-29T03:14:07.516Z,48.60
2023-03-29T03:16:35.516Z,49.00
2023-03-29T03:19:02.760Z,48.30
2023-03-29T03:21:29.834Z,48.40
2023-03-29T03:23:56.871Z,49.50
2023-03-29T03:26:30.043Z,48.50
2023-03-29T03:28:57.527Z,48.60
2023-03-29T03:31:47.571Z,48.80
2023-03-29T03:34:34.823Z,48.90
2023-03-29T03:37:02.180Z,48.50
2023-03-29T03:39:32.578Z,49.10
2023-03-29T03:42:00.714Z,48.80
2023-03-29T03:44:27.928Z,48.60
2023-03-29T03:47:16.248Z,48.70
2023-03-29T03:49:43.786Z,48.60
2023-03-29T03:52:11.119Z,49.00
2023-03-29T03:54:38.000Z,49.50
2023-03-29T03:57:32.992Z,48.90
2023-03-29T03:59:59.939Z,48.60
2023-03-29T04:02:39.506Z,49.00
2023-03-29T04:05:08.465Z,49.20
2023-03-29T04:07:37.914Z,48.60
2023-03-29T04:10:28.182Z,49.00
2023-03-29T04:13:20.584Z,48.70
2023-03-29T04:16:07.110Z,49.20
2023-03-29T04:18:34.041Z,48.70
2023-03-29T04:21:01.140Z,48.90
2023-03-29T04:23:29.008Z,49.10
2023-03-29T04:25:59.355Z,49.60
2023-03-29T04:28:49.441Z,49.60
2023-03-29T04:31:21.393Z,49.00
2023-03-29T04:34:09.667Z,49.40
2023-03-29T04:36:37.330Z,48.70
2023-03-29T04:39:07.854Z,49.00
2023-03-29T04:41:35.384Z,49.30
2023-03-29T04:44:06.726Z,49.80
2023-03-29T04:46:34.622Z,49.00
2023-03-29T04:49:38.081Z,48.80
2023-03-29T04:52:09.849Z,48.80
2023-03-29T04:54:37.537Z,48.90
2023-03-29T04:57:20.708Z,49.00
2023-03-29T05:00:17.356Z,48.90
2023-03-29T05:03:04.226Z,48.90
2023-03-29T05:05:34.033Z,48.90
2023-03-29T05:08:03.211Z,48.90
2023-03-29T05:10:41.348Z,49.50
2023-03-29T05:13:08.225Z,49.60
2023-03-29T05:15:35.417Z,49.00
2023-03-29T05:18:02.963Z,48.80
2023-03-29T05:20:31.298Z,49.90
2023-03-29T05:22:59.679Z,49.60
2023-03-29T05:25:49.973Z,48.70
2023-03-29T05:28:18.309Z,49.00
2023-03-29T05:30:45.892Z,48.90
2023-03-29T05:33:20.129Z,48.90
2023-03-29T05:35:47.179Z,48.80
2023-03-29T05:38:13.949Z,49.10
2023-03-29T05:40:41.458Z,48.80
2023-03-29T05:43:29.308Z,48.90
2023-03-29T05:45:56.759Z,48.80
2023-03-29T05:48:24.555Z,49.00
2023-03-29T05:50:53.756Z,48.80
2023-03-29T05:53:23.202Z,49.10
2023-03-29T05:55:51.115Z,48.90
2023-03-29T05:58:20.131Z,48.90
2023-03-29T06:00:51.757Z,49.90
2023-03-29T06:03:53.713Z,48.70
2023-03-29T06:06:24.378Z,48.70
2023-03-29T06:08:51.796Z,48.70
2023-03-29T06:11:24.331Z,48.90
2023-03-29T06:14:09.584Z,48.70
2023-03-29T06:16:42.816Z,48.80
2023-03-29T06:19:10.682Z,48.30
2023-03-29T06:21:38.604Z,48.30
2023-03-29T06:24:06.943Z,48.30
2023-03-29T06:26:39.164Z,49.00
2023-03-29T06:29:06.108Z,49.30
2023-03-29T06:31:35.971Z,48.70
2023-03-29T06:34:04.617Z,48.40
2023-03-29T06:36:52.848Z,47.80
2023-03-29T06:39:21.054Z,49.10
2023-03-29T06:42:20.023Z,48.80
2023-03-29T06:45:08.589Z,49.70
2023-03-29T06:47:37.164Z,49.00
2023-03-29T06:50:04.316Z,49.10
2023-03-29T06:52:36.894Z,49.20
2023-03-29T06:55:07.427Z,49.40
2023-03-29T06:57:35.743Z,49.50
2023-03-29T07:00:07.134Z,51.40
2023-03-29T07:02:56.000Z,51.10
2023-03-29T07:05:23.953Z,52.80
2023-03-29T07:07:55.129Z,53.10
2023-03-29T07:10:33.368Z,53.10
2023-03-29T07:13:32.892Z,54.00
2023-03-29T07:16:02.742Z,53.60
2023-03-29T07:18:41.487Z,54.00
2023-03-29T07:21:10.609Z,54.50
2023-03-29T07:23:38.038Z,54.70
2023-03-29T07:26:08.045Z,54.90
2023-03-29T07:28:37.580Z,54.70
2023-03-29T07:31:11.112Z,54.80
2023-03-29T07:33:44.734Z,54.60
2023-03-29T07:36:11.860Z,55.40
2023-03-29T07:38:38.652Z,54.30
2023-03-29T07:41:14.013Z,54.70
2023-03-29T07:43:46.766Z,55.30
2023-03-29T07:46:15.847Z,54.10
2023-03-29T07:48:43.652Z,54.70
2023-03-29T07:51:13.725Z,54.30
2023-03-29T07:53:53.524Z,53.70
2023-03-29T07:56:36.005Z,53.70
2023-03-29T07:59:22.990Z,53.90
2023-03-29T08:02:05.084Z,53.70
2023-03-29T08:04:37.312Z,53.80
2023-03-29T08:07:19.939Z,54.10
2023-03-29T08:10:07.343Z,54.10
2023-03-29T08:12:54.776Z,53.20
2023-03-29T08:15:29.007Z,53.20
2023-03-29T08:17:56.242Z,53.00
2023-03-29T08:20:23.717Z,52.90
2023-03-29T08:22:54.992Z,53.20
2023-03-29T08:25:40.464Z,53.50
2023-03-29T08:28:10.103Z,52.70
2023-03-29T08:30:45.580Z,52.60
2023-03-29T08:33:12.930Z,52.70
2023-03-29T08:35:40.037Z,52.50
2023-03-29T08:38:19.876Z,52.80
2023-03-29T08:40:49.235Z,53.00
2023-03-29T08:43:55.785Z,52.20
2023-03-29T08:46:54.013Z,52.20
2023-03-29T08:49:33.585Z,52.20
2023-03-29T08:52:05.111Z,52.60
2023-03-29T08:54:55.857Z,52.90
2023-03-29T08:57:48.583Z,52.80
2023-03-29T09:00:53.039Z,52.10
2023-03-29T09:03:23.754Z,52.00
2023-03-29T09:06:02.761Z,52.90
2023-03-29T09:08:30.397Z,52.00
2023-03-29T09:11:15.160Z,52.10
2023-03-29T09:13:57.235Z,52.00
2023-03-29T09:16:43.263Z,52.10
2023-03-29T09:19:42.671Z,51.90
2023-03-29T09:22:10.098Z,51.90
2023-03-29T09:24:39.930Z,52.70
2023-03-29T09:27:19.866Z,52.00
2023-03-29T09:30:11.991Z,51.80
2023-03-29T09:32:56.658Z,51.80
2023-03-29T09:36:02.956Z,51.70
2023-03-29T09:38:33.994Z,51.70
2023-03-29T09:41:08.820Z,52.00
2023-03-29T09:43:41.627Z,51.80
2023-03-29T09:46:33.763Z,52.00
2023-03-29T09:49:01.847Z,52.60
2023-03-29T09:51:31.658Z,52.80
2023-03-29T09:54:00.591Z,52.30
2023-03-29T09:56:39.089Z,52.00
2023-03-29T09:59:13.339Z,52.50
2023-03-29T10:01:45.141Z,51.90
2023-03-29T10:04:13.989Z,52.20
2023-03-29T10:06:52.574Z,51.80
2023-03-29T10:09:27.401Z,52.00
2023-03-29T10:12:05.485Z,51.70
2023-03-29T10:14:36.902Z,52.10
2023-03-29T10:17:36.762Z,52.40
2023-03-29T10:20:08.108Z,51.70
2023-03-29T10:22:37.909Z,51.70
2023-03-29T10:25:12.632Z,51.80
2023-03-29T10:27:42.765Z,51.60
2023-03-29T10:30:13.129Z,51.60
2023-03-29T10:32:41.087Z,51.60
2023-03-29T10:35:14.637Z,52.30
2023-03-29T10:37:44.096Z,51.60
2023-03-29T10:40:31.817Z,52.00
2023-03-29T10:43:01.118Z,51.60
2023-03-29T10:45:35.146Z,51.60
2023-03-29T10:48:06.731Z,52.20
2023-03-29T10:50:38.070Z,51.80
2023-03-29T10:53:19.369Z,51.80
2023-03-29T10:55:55.529Z,52.30
2023-03-29T10:58:56.310Z,51.80
2023-03-29T11:01:34.638Z,51.70
2023-03-29T11:04:27.326Z,51.70
2023-03-29T11:07:19.842Z,51.70
2023-03-29T11:10:12.919Z,51.70
2023-03-29T11:12:54.606Z,51.70
2023-03-29T11:16:02.690Z,51.70
2023-03-29T11:18:56.323Z,51.70
2023-03-29T11:21:27.926Z,51.70
2023-03-29T11:24:14.041Z,52.60
2023-03-29T11:27:02.638Z,51.80
2023-03-29T11:30:00.311Z,52.40
2023-03-29T11:32:50.735Z,51.80
2023-03-29T11:35:27.045Z,51.70
2023-03-29T11:38:14.084Z,51.80
2023-03-29T11:40:46.657Z,51.70
2023-03-29T11:43:22.723Z,51.70
2023-03-29T11:45:54.966Z,51.90
2023-03-29T11:48:28.636Z,51.60
2023-03-29T11:51:03.514Z,51.80
2023-03-29T11:54:01.424Z,51.70
2023-03-29T11:56:36.551Z,51.60
2023-03-29T11:59:22.186Z,51.60
2023-03-29T12:01:53.983Z,52.00
2023-03-29T12:04:32.481Z,51.80
2023-03-29T12:07:09.823Z,51.60
2023-03-29T12:09:38.835Z,51.60
2023-03-29T12:12:28.065Z,52.10
2023-03-29T12:15:03.482Z,51.70
2023-03-29T12:17:52.532Z,51.70
2023-03-29T12:20:32.195Z,51.70
2023-03-29T12:23:02.104Z,51.70
2023-03-29T12:25:41.118Z,51.80
2023-03-29T12:28:26.042Z,52.20
2023-03-29T12:31:09.501Z,52.80
2023-03-29T12:33:41.988Z,51.80
2023-03-29T12:36:38.985Z,52.60
2023-03-29T12:39:24.589Z,52.30
2023-03-29T12:42:17.582Z,51.80
2023-03-29T12:45:03.064Z,51.80
2023-03-29T12:47:43.081Z,51.80
2023-03-29T12:50:35.314Z,52.10
2023-03-29T12:53:25.246Z,52.20
2023-03-29T12:56:01.070Z,51.80
2023-03-29T12:58:40.286Z,51.80
2023-03-29T13:01:07.272Z,51.80
2023-03-29T13:03:46.428Z,51.90
2023-03-29T13:06:13.453Z,51.90
2023-03-29T13:08:44.792Z,52.10
2023-03-29T13:11:40.661Z,52.00
2023-03-29T13:14:19.137Z,51.90
2023-03-29T13:16:46.519Z,52.10
2023-03-29T13:19:37.468Z,51.90
2023-03-29T13:22:39.741Z,51.90
2023-03-29T13:25:12.221Z,52.00
2023-03-29T13:28:06.713Z,52.00
2023-03-29T13:31:38.461Z,52.00
2023-03-29T13:34:33.993Z,52.00
2023-03-29T13:37:06.926Z,52.10
2023-03-29T13:39:40.313Z,52.20
2023-03-29T13:42:35.574Z,52.40
2023-03-29T13:45:15.828Z,52.40
2023-03-29T13:47:58.425Z,52.50
2023-03-29T13:50:51.415Z,52.90
2023-03-29T13:53:45.637Z,52.70
2023-03-29T13:56:19.702Z,52.60
2023-03-29T13:58:51.805Z,52.70
2023-03-29T14:01:23.267Z,52.60
2023-03-29T14:03:54.072Z,53.10
2023-03-29T14:06:31.817Z,52.70
2023-03-29T14:09:04.193Z,53.50
2023-03-29T14:11:31.860Z,52.60
2023-03-29T14:14:00.836Z,52.60
2023-03-29T14:16:31.522Z,53.30
2023-03-29T14:19:00.215Z,53.00
2023-03-29T14:21:27.096Z,52.60
2023-03-29T14:23:58.047Z,52.60
2023-03-29T14:26:30.757Z,52.80
2023-03-29T14:29:01.053Z,53.20
2023-03-29T14:31:35.938Z,52.70
2023-03-29T14:34:06.611Z,52.80
2023-03-29T14:36:34.038Z,52.80
2023-03-29T14:39:18.018Z,53.70
2023-03-29T14:41:52.981Z,53.60
2023-03-29T14:44:27.465Z,53.00
2023-03-29T14:46:55.137Z,53.10
2023-03-29T14:49:23.139Z,53.00
2023-03-29T14:51:50.413Z,53.80
2023-03-29T14:54:22.023Z,52.90
2023-03-29T14:56:50.183Z,52.90
2023-03-29T14:59:37.214Z,53.10
2023-03-29T15:02:21.345Z,53.00
2023-03-29T15:04:55.996Z,53.80
2023-03-29T15:07:24.854Z,53.30
2023-03-29T15:09:52.091Z,53.50
2023-03-29T15:12:19.141Z,52.90
2023-03-29T15:14:47.917Z,54.30
2023-03-29T15:17:50.230Z,54.00
2023-03-29T15:20:21.531Z,53.10
2023-03-29T15:23:08.016Z,53.30
2023-03-29T15:25:38.038Z,53.80
2023-03-29T15:28:04.869Z,53.20
2023-03-29T15:30:46.362Z,54.60
2023-03-29T15:33:24.085Z,54.10
2023-03-29T15:35:53.638Z,53.10
2023-03-29T15:38:27.411Z,53.30
2023-03-29T15:40:57.513Z,53.20
2023-03-29T15:43:25.665Z,53.10
2023-03-29T15:45:52.600Z,53.10
2023-03-29T15:48:22.295Z,53.10
2023-03-29T15:50:49.480Z,53.20
2023-03-29T15:53:17.125Z,53.10
2023-03-29T15:55:47.034Z,53.00
2023-03-29T15:58:16.675Z,53.20
2023-03-29T16:00:47.356Z,53.50
2023-03-29T16:03:15.934Z,53.50
2023-03-29T16:05:44.225Z,53.30
2023-03-29T16:08:12.617Z,53.20
2023-03-29T16:10:41.152Z,52.90
2023-03-29T16:13:09.962Z,53.20
2023-03-29T16:15:36.882Z,53.20
2023-03-29T16:18:03.748Z,53.10
2023-03-29T16:20:30.688Z,52.90
2023-03-29T16:22:57.415Z,52.90
2023-03-29T16:25:24.274Z,52.90
2023-03-29T16:27:52.751Z,53.00
2023-03-29T16:30:19.713Z,52.80
2023-03-29T16:32:46.612Z,52.80
2023-03-29T16:35:28.846Z,54.00
2023-03-29T16:37:56.053Z,52.80
2023-03-29T16:40:23.840Z,52.90
2023-03-29T16:42:51.589Z,52.90
2023-03-29T16:45:19.531Z,52.80
2023-03-29T16:47:46.588Z,52.80
2023-03-29T16:50:18.851Z,53.20
2023-03-29T16:52:48.509Z,52.70
2023-03-29T16:55:19.129Z,52.80
2023-03-29T16:57:47.664Z,52.80
2023-03-29T17:00:16.911Z,52.70
2023-03-29T17:02:44.370Z,52.70
2023-03-29T17:05:13.124Z,53.50
2023-03-29T17:07:40.182Z,52.70
2023-03-29T17:10:08.588Z,52.90
2023-03-29T17:12:35.986Z,52.80
2023-03-29T17:15:04.263Z,52.80
2023-03-29T17:17:31.132Z,52.80
2023-03-29T17:19:58.013Z,52.90
2023-03-29T17:22:25.418Z,53.00
2023-03-29T17:24:52.222Z,52.80
2023-03-29T17:27:19.184Z,52.80
2023-03-29T17:29:46.192Z,53.00
2023-03-29T17:32:13.145Z,52.90
2023-03-29T17:34:40.791Z,53.00
2023-03-29T17:37:07.635Z,52.90
2023-03-29T17:39:37.352Z,53.00
2023-03-29T17:42:06.248Z,53.00
2023-03-29T17:44:34.037Z,53.00
2023-03-29T17:47:01.144Z,53.50
2023-03-29T17:49:28.231Z,53.60
2023-03-29T17:51:55.265Z,53.20
2023-03-29T17:54:21.986Z,53.10
2023-03-29T17:56:50.365Z,54.20
2023-03-29T17:59:17.623Z,53.80
2023-03-29T18:01:44.555Z,53.10
2023-03-29T18:04:11.344Z,53.10
2023-03-29T18:06:38.187Z,53.70
2023-03-29T18:09:05.507Z,53.50
2023-03-29T18:11:32.488Z,53.20
2023-03-29T18:14:01.112Z,53.70
2023-03-29T18:16:29.130Z,53.20
2023-03-29T18:18:55.892Z,53.50
2023-03-29T18:21:25.323Z,54.10
2023-03-29T18:23:54.373Z,53.30
2023-03-29T18:26:22.877Z,54.70
2023-03-29T18:28:51.149Z,53.50
2023-03-29T18:31:20.053Z,53.40
2023-03-29T18:33:47.471Z,54.00
2023-03-29T18:36:14.798Z,53.30
2023-03-29T18:38:43.016Z,54.00
2023-03-29T18:41:12.326Z,54.20
2023-03-29T18:43:39.761Z,53.20
2023-03-29T18:46:08.045Z,54.40
2023-03-29T18:48:38.732Z,53.90
2023-03-29T18:51:07.600Z,53.20
2023-03-29T18:53:35.819Z,53.20
2023-03-29T18:56:04.545Z,53.90
2023-03-29T18:58:33.076Z,53.40
2023-03-29T19:01:05.087Z,53.90
2023-03-29T19:03:34.489Z,53.10
2023-03-29T19:06:02.315Z,53.10
2023-03-29T19:08:29.322Z,53.20
2023-03-29T19:11:04.580Z,53.60
2023-03-29T19:13:31.444Z,53.00
2023-03-29T19:15:58.654Z,53.10
2023-03-29T19:18:25.972Z,53.00
2023-03-29T19:20:54.211Z,53.00
2023-03-29T19:23:27.203Z,52.90
2023-03-29T19:25:56.634Z,53.20
2023-03-29T19:28:24.356Z,53.50
2023-03-29T19:30:51.204Z,53.80
2023-03-29T19:33:18.382Z,53.30
2023-03-29T19:35:46.617Z,53.40
2023-03-29T19:38:13.474Z,52.80
2023-03-29T19:40:44.076Z,52.90
2023-03-29T19:43:16.305Z,53.00
2023-03-29T19:45:44.247Z,52.90
2023-03-29T19:48:21.078Z,53.10
2023-03-29T19:50:49.114Z,52.80
2023-03-29T19:53:15.920Z,52.80
2023-03-29T19:55:43.062Z,53.00
2023-03-29T19:58:09.932Z,52.70
2023-03-29T20:00:38.571Z,52.70
2023-03-29T20:03:09.002Z,54.10
2023-03-29T20:05:38.354Z,52.60
2023-03-29T20:08:05.713Z,52.50
2023-03-29T20:10:33.678Z,52.60
2023-03-29T20:13:00.660Z,53.00
2023-03-29T20:15:27.593Z,52.60
2023-03-29T20:17:58.539Z,52.70
2023-03-29T20:20:26.986Z,52.60
2023-03-29T20:23:05.196Z,52.90
2023-03-29T20:25:34.872Z,52.60
2023-03-29T20:28:01.711Z,52.60
2023-03-29T20:30:28.530Z,52.80
2023-03-29T20:32:55.571Z,52.70
2023-03-29T20:35:22.289Z,53.90
2023-03-29T20:37:48.970Z,53.80
2023-03-29T20:40:16.841Z,54.00
2023-03-29T20:42:46.096Z,52.90
2023-03-29T20:45:18.341Z,53.20
2023-03-29T20:47:57.355Z,53.00
2023-03-29T20:50:28.030Z,53.20
2023-03-29T20:52:55.972Z,53.00
2023-03-29T20:55:23.368Z,53.10
2023-03-29T20:57:53.994Z,53.10
2023-03-29T21:00:22.302Z,53.40
2023-03-29T21:02:49.098Z,53.10
2023-03-29T21:05:16.115Z,53.70
2023-03-29T21:07:44.653Z,53.50
2023-03-29T21:10:12.279Z,53.30
2023-03-29T21:12:39.959Z,53.50
2023-03-29T21:15:11.024Z,53.20
2023-03-29T21:17:38.050Z,53.20
2023-03-29T21:20:12.662Z,53.60
2023-03-29T21:22:40.361Z,53.20
2023-03-29T21:25:08.908Z,53.40
2023-03-29T21:27:36.374Z,53.30
2023-03-29T21:30:05.340Z,53.50
2023-03-29T21:32:32.267Z,53.30
2023-03-29T21:34:59.046Z,53.30
2023-03-29T21:37:25.849Z,53.20
2023-03-29T21:39:52.734Z,53.40
2023-03-29T21:42:19.500Z,53.20
2023-03-29T21:44:46.319Z,53.30
2023-03-29T21:47:12.978Z,53.50
2023-03-29T21:49:40.074Z,53.50
2023-03-29T21:52:07.122Z,53.30
2023-03-29T21:54:33.948Z,53.50
2023-03-29T21:57:00.665Z,53.60
2023-03-29T21:59:27.915Z,54.70
2023-03-29T22:01:55.694Z,53.20
2023-03-29T22:04:35.248Z,54.10
2023-03-29T22:07:03.420Z,53.20
2023-03-29T22:09:31.738Z,53.60
2023-03-29T22:11:59.607Z,53.20
2023-03-29T22:14:28.377Z,53.20
2023-03-29T22:16:55.344Z,54.10
2023-03-29T22:19:22.222Z,54.10
2023-03-29T22:21:48.938Z,54.40
2023-03-29T22:24:16.533Z,54.10
2023-03-29T22:26:44.855Z,53.80
2023-03-29T22:29:11.935Z,53.40
2023-03-29T22:31:39.384Z,53.40
2023-03-29T22:34:07.336Z,54.00
2023-03-29T22:36:36.720Z,53.40
2023-03-29T22:39:03.888Z,53.70
2023-03-29T22:41:30.735Z,53.40
2023-03-29T22:43:59.049Z,53.50
2023-03-29T22:46:26.369Z,53.70
2023-03-29T22:48:53.468Z,53.40
2023-03-29T22:51:20.758Z,53.40
2023-03-29T22:53:47.674Z,53.40
2023-03-29T22:56:16.266Z,53.40
2023-03-29T22:58:43.624Z,53.70
2023-03-29T23:01:11.271Z,53.40
2023-03-29T23:03:38.136Z,53.80
2023-03-29T23:06:05.555Z,53.70
2023-03-29T23:08:34.100Z,53.50
2023-03-29T23:11:01.299Z,53.70
2023-03-29T23:13:31.280Z,53.60
2023-03-29T23:16:00.105Z,53.70
2023-03-29T23:18:29.387Z,54.40
2023-03-29T23:20:58.184Z,53.90
2023-03-29T23:23:26.778Z,53.70
2023-03-29T23:25:55.468Z,53.70
2023-03-29T23:28:24.932Z,54.00
2023-03-29T23:30:55.580Z,53.80
2023-03-29T23:33:23.238Z,54.00
2023-03-29T23:35:50.297Z,53.70
2023-03-29T23:38:17.282Z,54.60
2023-03-29T23:40:44.123Z,54.10
2023-03-29T23:43:13.453Z,53.80
2023-03-29T23:45:41.205Z,53.90
2023-03-29T23:48:08.611Z,54.20
2023-03-29T23:50:35.497Z,55.00
2023-03-29T23:53:02.228Z,55.10
2023-03-29T23:55:29.004Z,54.40
2023-03-29T23:57:55.873Z,54.00
